sensor_id;sensor_type;location;lat;lon;timestamp;P1;durP1;ratioP1;P2;durP2;ratioP2
30635;SDS011;17400;52.392;9.750;2023-08-08T00:00:31;2.05;;;1.30;;
30635;SDS011;17400;52.392;9.750;2023-08-08T00:03:02;4.43;;;1.70;;
30635;SDS011;17400;52.392;9.750;2023-08-08T00:05:31;2.83;;;1.63;;
30635;SDS011;17400;52.392;9.750;2023-08-08T00:07:59;3.88;;;1.98;;
30635;SDS011;17400;52.392;9.750;2023-08-08T00:10:27;3.88;;;1.38;;
30635;SDS011;17400;52.392;9.750;2023-08-08T00:12:55;3.00;;;1.90;;
30635;SDS011;17400;52.392;9.750;2023-08-08T00:15:23;5.82;;;2.25;;
30635;SDS011;17400;52.392;9.750;2023-08-08T00:17:51;3.15;;;1.80;;
30635;SDS011;17400;52.392;9.750;2023-08-08T00:20:20;2.50;;;1.25;;
30635;SDS011;17400;52.392;9.750;2023-08-08T00:22:48;3.10;;;1.67;;
30635;SDS011;17400;52.392;9.750;2023-08-08T00:25:16;3.08;;;1.85;;
30635;SDS011;17400;52.392;9.750;2023-08-08T00:27:43;3.78;;;1.92;;
30635;SDS011;17400;52.392;9.750;2023-08-08T00:30:12;4.85;;;2.28;;
30635;SDS011;17400;52.392;9.750;2023-08-08T00:32:40;4.35;;;1.42;;
30635;SDS011;17400;52.392;9.750;2023-08-08T00:35:08;3.35;;;1.45;;
30635;SDS011;17400;52.392;9.750;2023-08-08T00:37:38;4.03;;;1.77;;
30635;SDS011;17400;52.392;9.750;2023-08-08T00:40:06;2.47;;;1.45;;
30635;SDS011;17400;52.392;9.750;2023-08-08T00:42:35;7.72;;;1.92;;
30635;SDS011;17400;52.392;9.750;2023-08-08T00:45:03;7.30;;;2.40;;
30635;SDS011;17400;52.392;9.750;2023-08-08T00:47:32;3.40;;;1.70;;
30635;SDS011;17400;52.392;9.750;2023-08-08T00:50:02;6.45;;;1.80;;
30635;SDS011;17400;52.392;9.750;2023-08-08T00:52:31;8.02;;;1.60;;
30635;SDS011;17400;52.392;9.750;2023-08-08T00:55:01;3.50;;;1.88;;
30635;SDS011;17400;52.392;9.750;2023-08-08T00:57:30;2.97;;;1.75;;
30635;SDS011;17400;52.392;9.750;2023-08-08T01:00:01;4.72;;;1.50;;
30635;SDS011;17400;52.392;9.750;2023-08-08T01:02:30;3.50;;;2.20;;
30635;SDS011;17400;52.392;9.750;2023-08-08T01:05:00;4.13;;;1.60;;
30635;SDS011;17400;52.392;9.750;2023-08-08T01:07:30;4.18;;;2.35;;
30635;SDS011;17400;52.392;9.750;2023-08-08T01:10:06;4.35;;;1.38;;
30635;SDS011;17400;52.392;9.750;2023-08-08T01:12:37;5.25;;;1.38;;
30635;SDS011;17400;52.392;9.750;2023-08-08T01:15:08;4.45;;;1.70;;
30635;SDS011;17400;52.392;9.750;2023-08-08T01:17:37;3.38;;;1.70;;
30635;SDS011;17400;52.392;9.750;2023-08-08T01:20:07;2.50;;;1.50;;
30635;SDS011;17400;52.392;9.750;2023-08-08T01:22:37;3.53;;;2.00;;
30635;SDS011;17400;52.392;9.750;2023-08-08T01:25:10;5.00;;;2.55;;
30635;SDS011;17400;52.392;9.750;2023-08-08T01:27:38;4.18;;;1.88;;
30635;SDS011;17400;52.392;9.750;2023-08-08T01:30:06;3.13;;;1.85;;
30635;SDS011;17400;52.392;9.750;2023-08-08T01:32:35;3.42;;;1.80;;
30635;SDS011;17400;52.392;9.750;2023-08-08T01:35:03;5.43;;;1.55;;
30635;SDS011;17400;52.392;9.750;2023-08-08T01:37:34;2.55;;;1.65;;
30635;SDS011;17400;52.392;9.750;2023-08-08T01:40:06;2.05;;;1.40;;
30635;SDS011;17400;52.392;9.750;2023-08-08T01:42:38;5.40;;;1.75;;
30635;SDS011;17400;52.392;9.750;2023-08-08T01:45:07;3.97;;;1.63;;
30635;SDS011;17400;52.392;9.750;2023-08-08T01:47:36;3.38;;;1.60;;
30635;SDS011;17400;52.392;9.750;2023-08-08T01:50:04;3.03;;;1.77;;
30635;SDS011;17400;52.392;9.750;2023-08-08T01:52:33;3.25;;;1.30;;
30635;SDS011;17400;52.392;9.750;2023-08-08T01:55:01;3.33;;;2.50;;
30635;SDS011;17400;52.392;9.750;2023-08-08T01:57:30;4.00;;;1.52;;
30635;SDS011;17400;52.392;9.750;2023-08-08T01:59:59;3.28;;;1.52;;
30635;SDS011;17400;52.392;9.750;2023-08-08T02:02:27;4.18;;;1.75;;
30635;SDS011;17400;52.392;9.750;2023-08-08T02:04:55;5.32;;;2.17;;
30635;SDS011;17400;52.392;9.750;2023-08-08T02:07:22;2.65;;;1.73;;
30635;SDS011;17400;52.392;9.750;2023-08-08T02:09:50;3.28;;;1.85;;
30635;SDS011;17400;52.392;9.750;2023-08-08T02:12:18;5.13;;;2.10;;
30635;SDS011;17400;52.392;9.750;2023-08-08T02:14:46;3.00;;;2.33;;
30635;SDS011;17400;52.392;9.750;2023-08-08T02:17:16;2.13;;;1.42;;
30635;SDS011;17400;52.392;9.750;2023-08-08T02:19:43;3.47;;;1.38;;
30635;SDS011;17400;52.392;9.750;2023-08-08T02:22:11;2.67;;;1.50;;
30635;SDS011;17400;52.392;9.750;2023-08-08T02:24:39;3.63;;;1.90;;
30635;SDS011;17400;52.392;9.750;2023-08-08T02:27:07;5.80;;;2.22;;
30635;SDS011;17400;52.392;9.750;2023-08-08T02:29:35;2.70;;;1.90;;
30635;SDS011;17400;52.392;9.750;2023-08-08T02:32:03;3.17;;;1.73;;
30635;SDS011;17400;52.392;9.750;2023-08-08T02:34:33;3.47;;;1.83;;
30635;SDS011;17400;52.392;9.750;2023-08-08T02:37:01;3.55;;;2.10;;
30635;SDS011;17400;52.392;9.750;2023-08-08T02:39:29;3.25;;;1.75;;
30635;SDS011;17400;52.392;9.750;2023-08-08T02:41:57;6.07;;;1.45;;
30635;SDS011;17400;52.392;9.750;2023-08-08T02:44:26;2.40;;;1.70;;
30635;SDS011;17400;52.392;9.750;2023-08-08T02:46:54;2.63;;;1.65;;
30635;SDS011;17400;52.392;9.750;2023-08-08T02:49:22;3.53;;;1.77;;
30635;SDS011;17400;52.392;9.750;2023-08-08T02:51:51;3.72;;;1.70;;
30635;SDS011;17400;52.392;9.750;2023-08-08T02:54:19;3.17;;;1.95;;
30635;SDS011;17400;52.392;9.750;2023-08-08T02:56:47;3.00;;;1.48;;
30635;SDS011;17400;52.392;9.750;2023-08-08T02:59:16;7.00;;;2.10;;
30635;SDS011;17400;52.392;9.750;2023-08-08T03:01:44;4.55;;;1.90;;
30635;SDS011;17400;52.392;9.750;2023-08-08T03:04:13;3.50;;;1.73;;
30635;SDS011;17400;52.392;9.750;2023-08-08T03:06:44;3.72;;;2.33;;
30635;SDS011;17400;52.392;9.750;2023-08-08T03:09:13;2.92;;;1.92;;
30635;SDS011;17400;52.392;9.750;2023-08-08T03:11:41;3.80;;;2.13;;
30635;SDS011;17400;52.392;9.750;2023-08-08T03:14:09;3.95;;;2.00;;
30635;SDS011;17400;52.392;9.750;2023-08-08T03:16:37;9.90;;;2.75;;
30635;SDS011;17400;52.392;9.750;2023-08-08T03:19:04;8.60;;;2.78;;
30635;SDS011;17400;52.392;9.750;2023-08-08T03:21:32;4.20;;;2.10;;
30635;SDS011;17400;52.392;9.750;2023-08-08T03:24:00;3.08;;;1.55;;
30635;SDS011;17400;52.392;9.750;2023-08-08T03:26:30;9.55;;;3.55;;
30635;SDS011;17400;52.392;9.750;2023-08-08T03:28:58;5.63;;;2.65;;
30635;SDS011;17400;52.392;9.750;2023-08-08T03:31:26;4.13;;;2.45;;
30635;SDS011;17400;52.392;9.750;2023-08-08T03:33:54;3.45;;;2.00;;
30635;SDS011;17400;52.392;9.750;2023-08-08T03:36:22;3.63;;;1.92;;
30635;SDS011;17400;52.392;9.750;2023-08-08T03:38:50;4.15;;;2.40;;
30635;SDS011;17400;52.392;9.750;2023-08-08T03:41:18;5.25;;;2.40;;
30635;SDS011;17400;52.392;9.750;2023-08-08T03:43:47;7.60;;;3.13;;
30635;SDS011;17400;52.392;9.750;2023-08-08T03:46:15;5.60;;;2.47;;
30635;SDS011;17400;52.392;9.750;2023-08-08T03:48:43;3.15;;;1.88;;
30635;SDS011;17400;52.392;9.750;2023-08-08T03:51:11;5.32;;;2.30;;
30635;SDS011;17400;52.392;9.750;2023-08-08T03:53:40;5.35;;;2.95;;
30635;SDS011;17400;52.392;9.750;2023-08-08T03:56:08;6.90;;;3.42;;
30635;SDS011;17400;52.392;9.750;2023-08-08T03:58:36;7.90;;;2.75;;
30635;SDS011;17400;52.392;9.750;2023-08-08T04:01:06;4.93;;;2.63;;
30635;SDS011;17400;52.392;9.750;2023-08-08T04:03:34;4.13;;;2.88;;
30635;SDS011;17400;52.392;9.750;2023-08-08T04:06:03;3.90;;;2.30;;
30635;SDS011;17400;52.392;9.750;2023-08-08T04:08:31;3.90;;;2.65;;
30635;SDS011;17400;52.392;9.750;2023-08-08T04:10:59;4.63;;;2.38;;
30635;SDS011;17400;52.392;9.750;2023-08-08T04:13:27;5.63;;;3.08;;
30635;SDS011;17400;52.392;9.750;2023-08-08T04:15:56;11.13;;;2.88;;
30635;SDS011;17400;52.392;9.750;2023-08-08T04:18:25;10.88;;;3.33;;
30635;SDS011;17400;52.392;9.750;2023-08-08T04:20:53;4.43;;;3.03;;
30635;SDS011;17400;52.392;9.750;2023-08-08T04:23:21;5.47;;;1.90;;
30635;SDS011;17400;52.392;9.750;2023-08-08T04:25:51;4.03;;;2.55;;
30635;SDS011;17400;52.392;9.750;2023-08-08T04:28:19;4.70;;;2.88;;
30635;SDS011;17400;52.392;9.750;2023-08-08T04:30:47;7.35;;;3.95;;
30635;SDS011;17400;52.392;9.750;2023-08-08T04:33:15;5.78;;;2.38;;
30635;SDS011;17400;52.392;9.750;2023-08-08T04:35:45;5.85;;;2.65;;
30635;SDS011;17400;52.392;9.750;2023-08-08T04:38:14;3.95;;;1.75;;
30635;SDS011;17400;52.392;9.750;2023-08-08T04:40:42;4.43;;;2.30;;
30635;SDS011;17400;52.392;9.750;2023-08-08T04:43:10;3.85;;;2.03;;
30635;SDS011;17400;52.392;9.750;2023-08-08T04:45:38;4.57;;;2.83;;
30635;SDS011;17400;52.392;9.750;2023-08-08T04:48:07;2.65;;;2.25;;
30635;SDS011;17400;52.392;9.750;2023-08-08T04:50:35;5.05;;;1.80;;
30635;SDS011;17400;52.392;9.750;2023-08-08T04:53:05;4.13;;;2.08;;
30635;SDS011;17400;52.392;9.750;2023-08-08T04:55:33;2.85;;;1.95;;
30635;SDS011;17400;52.392;9.750;2023-08-08T04:58:00;6.13;;;3.13;;
30635;SDS011;17400;52.392;9.750;2023-08-08T05:00:29;4.20;;;2.05;;
30635;SDS011;17400;52.392;9.750;2023-08-08T05:02:57;5.43;;;2.53;;
30635;SDS011;17400;52.392;9.750;2023-08-08T05:05:26;3.58;;;2.22;;
30635;SDS011;17400;52.392;9.750;2023-08-08T05:07:54;5.10;;;1.83;;
30635;SDS011;17400;52.392;9.750;2023-08-08T05:10:23;3.92;;;2.33;;
30635;SDS011;17400;52.392;9.750;2023-08-08T05:12:50;3.88;;;1.92;;
30635;SDS011;17400;52.392;9.750;2023-08-08T05:15:18;4.60;;;2.42;;
30635;SDS011;17400;52.392;9.750;2023-08-08T05:17:46;3.92;;;2.38;;
30635;SDS011;17400;52.392;9.750;2023-08-08T05:20:14;5.07;;;2.58;;
30635;SDS011;17400;52.392;9.750;2023-08-08T05:22:42;6.07;;;2.50;;
30635;SDS011;17400;52.392;9.750;2023-08-08T05:25:12;5.28;;;2.28;;
30635;SDS011;17400;52.392;9.750;2023-08-08T05:27:41;5.07;;;2.47;;
30635;SDS011;17400;52.392;9.750;2023-08-08T05:30:09;4.68;;;2.70;;
30635;SDS011;17400;52.392;9.750;2023-08-08T05:32:38;5.95;;;2.58;;
30635;SDS011;17400;52.392;9.750;2023-08-08T05:35:06;5.53;;;2.63;;
30635;SDS011;17400;52.392;9.750;2023-08-08T05:37:34;6.30;;;3.17;;
30635;SDS011;17400;52.392;9.750;2023-08-08T05:40:02;5.38;;;2.72;;
30635;SDS011;17400;52.392;9.750;2023-08-08T05:42:33;5.38;;;4.35;;
30635;SDS011;17400;52.392;9.750;2023-08-08T05:45:02;5.88;;;3.15;;
30635;SDS011;17400;52.392;9.750;2023-08-08T05:47:31;4.97;;;2.55;;
30635;SDS011;17400;52.392;9.750;2023-08-08T05:50:00;4.95;;;3.28;;
30635;SDS011;17400;52.392;9.750;2023-08-08T05:52:29;4.65;;;3.00;;
30635;SDS011;17400;52.392;9.750;2023-08-08T05:54:57;4.20;;;3.03;;
30635;SDS011;17400;52.392;9.750;2023-08-08T05:57:26;9.98;;;2.75;;
30635;SDS011;17400;52.392;9.750;2023-08-08T05:59:54;6.28;;;2.67;;
30635;SDS011;17400;52.392;9.750;2023-08-08T06:02:23;4.53;;;2.95;;
30635;SDS011;17400;52.392;9.750;2023-08-08T06:04:52;3.47;;;2.70;;
30635;SDS011;17400;52.392;9.750;2023-08-08T06:07:20;7.22;;;3.35;;
30635;SDS011;17400;52.392;9.750;2023-08-08T06:09:48;5.78;;;3.10;;
30635;SDS011;17400;52.392;9.750;2023-08-08T06:12:16;4.15;;;3.35;;
30635;SDS011;17400;52.392;9.750;2023-08-08T06:14:44;4.13;;;2.72;;
30635;SDS011;17400;52.392;9.750;2023-08-08T06:17:13;4.15;;;2.78;;
30635;SDS011;17400;52.392;9.750;2023-08-08T06:19:42;6.30;;;3.50;;
30635;SDS011;17400;52.392;9.750;2023-08-08T06:22:11;4.03;;;2.72;;
30635;SDS011;17400;52.392;9.750;2023-08-08T06:24:39;6.35;;;3.00;;
30635;SDS011;17400;52.392;9.750;2023-08-08T06:27:07;7.13;;;3.47;;
30635;SDS011;17400;52.392;9.750;2023-08-08T06:29:34;4.35;;;2.30;;
30635;SDS011;17400;52.392;9.750;2023-08-08T06:32:02;6.32;;;3.20;;
30635;SDS011;17400;52.392;9.750;2023-08-08T06:34:32;3.60;;;2.33;;
30635;SDS011;17400;52.392;9.750;2023-08-08T06:37:02;6.07;;;3.10;;
30635;SDS011;17400;52.392;9.750;2023-08-08T06:39:34;6.57;;;3.08;;
30635;SDS011;17400;52.392;9.750;2023-08-08T06:42:07;4.70;;;2.58;;
30635;SDS011;17400;52.392;9.750;2023-08-08T06:44:40;5.63;;;3.33;;
30635;SDS011;17400;52.392;9.750;2023-08-08T06:47:09;5.18;;;3.22;;
30635;SDS011;17400;52.392;9.750;2023-08-08T06:49:37;4.97;;;3.42;;
30635;SDS011;17400;52.392;9.750;2023-08-08T06:52:07;5.15;;;3.20;;
30635;SDS011;17400;52.392;9.750;2023-08-08T06:54:35;5.80;;;3.17;;
30635;SDS011;17400;52.392;9.750;2023-08-08T06:57:03;6.20;;;3.80;;
30635;SDS011;17400;52.392;9.750;2023-08-08T06:59:31;5.25;;;3.67;;
30635;SDS011;17400;52.392;9.750;2023-08-08T07:01:59;6.10;;;2.88;;
30635;SDS011;17400;52.392;9.750;2023-08-08T07:04:27;3.92;;;2.80;;
30635;SDS011;17400;52.392;9.750;2023-08-08T07:06:55;4.50;;;2.55;;
30635;SDS011;17400;52.392;9.750;2023-08-08T07:09:25;7.82;;;3.05;;
30635;SDS011;17400;52.392;9.750;2023-08-08T07:11:53;4.55;;;2.55;;
30635;SDS011;17400;52.392;9.750;2023-08-08T07:14:21;8.43;;;2.70;;
30635;SDS011;17400;52.392;9.750;2023-08-08T07:16:48;4.18;;;2.78;;
30635;SDS011;17400;52.392;9.750;2023-08-08T07:19:16;5.10;;;2.92;;
30635;SDS011;17400;52.392;9.750;2023-08-08T07:21:47;3.78;;;2.17;;
30635;SDS011;17400;52.392;9.750;2023-08-08T07:24:16;5.80;;;2.47;;
30635;SDS011;17400;52.392;9.750;2023-08-08T07:26:46;5.82;;;2.83;;
30635;SDS011;17400;52.392;9.750;2023-08-08T07:29:14;3.65;;;2.55;;
30635;SDS011;17400;52.392;9.750;2023-08-08T07:31:43;6.85;;;3.53;;
30635;SDS011;17400;52.392;9.750;2023-08-08T07:34:11;5.18;;;2.92;;
30635;SDS011;17400;52.392;9.750;2023-08-08T07:36:38;3.90;;;2.13;;
30635;SDS011;17400;52.392;9.750;2023-08-08T07:39:06;4.90;;;2.30;;
30635;SDS011;17400;52.392;9.750;2023-08-08T07:41:35;5.18;;;2.45;;
30635;SDS011;17400;52.392;9.750;2023-08-08T07:44:04;6.88;;;1.95;;
30635;SDS011;17400;52.392;9.750;2023-08-08T07:46:33;4.90;;;2.13;;
30635;SDS011;17400;52.392;9.750;2023-08-08T07:49:01;3.63;;;2.65;;
30635;SDS011;17400;52.392;9.750;2023-08-08T07:51:30;5.20;;;2.38;;
30635;SDS011;17400;52.392;9.750;2023-08-08T07:53:58;3.72;;;2.08;;
30635;SDS011;17400;52.392;9.750;2023-08-08T07:56:27;4.72;;;2.50;;
30635;SDS011;17400;52.392;9.750;2023-08-08T07:58:54;5.40;;;2.47;;
30635;SDS011;17400;52.392;9.750;2023-08-08T08:01:24;4.90;;;2.95;;
30635;SDS011;17400;52.392;9.750;2023-08-08T08:03:53;5.88;;;2.30;;
30635;SDS011;17400;52.392;9.750;2023-08-08T08:06:21;2.63;;;1.88;;
30635;SDS011;17400;52.392;9.750;2023-08-08T08:08:49;2.33;;;1.90;;
30635;SDS011;17400;52.392;9.750;2023-08-08T08:11:17;5.63;;;2.35;;
30635;SDS011;17400;52.392;9.750;2023-08-08T08:13:46;3.50;;;1.88;;
30635;SDS011;17400;52.392;9.750;2023-08-08T08:16:14;3.60;;;1.73;;
30635;SDS011;17400;52.392;9.750;2023-08-08T08:18:43;5.05;;;2.47;;
30635;SDS011;17400;52.392;9.750;2023-08-08T08:21:11;4.05;;;1.95;;
30635;SDS011;17400;52.392;9.750;2023-08-08T08:23:40;4.13;;;2.00;;
30635;SDS011;17400;52.392;9.750;2023-08-08T08:26:08;5.70;;;2.05;;
30635;SDS011;17400;52.392;9.750;2023-08-08T08:28:36;2.90;;;1.80;;
30635;SDS011;17400;52.392;9.750;2023-08-08T08:31:06;2.75;;;1.63;;
30635;SDS011;17400;52.392;9.750;2023-08-08T08:33:35;4.90;;;1.70;;
30635;SDS011;17400;52.392;9.750;2023-08-08T08:36:05;4.07;;;1.60;;
30635;SDS011;17400;52.392;9.750;2023-08-08T08:38:34;5.68;;;3.05;;
30635;SDS011;17400;52.392;9.750;2023-08-08T08:41:02;4.07;;;1.80;;
30635;SDS011;17400;52.392;9.750;2023-08-08T08:43:31;3.38;;;1.70;;
30635;SDS011;17400;52.392;9.750;2023-08-08T08:45:59;4.88;;;1.90;;
30635;SDS011;17400;52.392;9.750;2023-08-08T08:48:28;2.20;;;1.40;;
30635;SDS011;17400;52.392;9.750;2023-08-08T08:50:57;4.15;;;1.60;;
30635;SDS011;17400;52.392;9.750;2023-08-08T08:53:27;4.25;;;1.80;;
30635;SDS011;17400;52.392;9.750;2023-08-08T08:55:56;4.20;;;1.73;;
30635;SDS011;17400;52.392;9.750;2023-08-08T08:58:24;5.82;;;2.00;;
30635;SDS011;17400;52.392;9.750;2023-08-08T09:00:54;6.85;;;2.22;;
30635;SDS011;17400;52.392;9.750;2023-08-08T09:03:23;4.10;;;1.80;;
30635;SDS011;17400;52.392;9.750;2023-08-08T09:05:52;4.32;;;1.23;;
30635;SDS011;17400;52.392;9.750;2023-08-08T09:08:21;2.33;;;2.13;;
30635;SDS011;17400;52.392;9.750;2023-08-08T09:10:51;6.32;;;1.98;;
30635;SDS011;17400;52.392;9.750;2023-08-08T09:13:19;3.10;;;1.95;;
30635;SDS011;17400;52.392;9.750;2023-08-08T09:15:49;3.58;;;1.65;;
30635;SDS011;17400;52.392;9.750;2023-08-08T09:18:17;2.67;;;1.80;;
30635;SDS011;17400;52.392;9.750;2023-08-08T09:20:46;3.25;;;1.80;;
30635;SDS011;17400;52.392;9.750;2023-08-08T09:23:15;3.65;;;1.90;;
30635;SDS011;17400;52.392;9.750;2023-08-08T09:25:43;4.70;;;1.98;;
30635;SDS011;17400;52.392;9.750;2023-08-08T09:28:13;2.50;;;1.80;;
30635;SDS011;17400;52.392;9.750;2023-08-08T09:30:41;5.88;;;1.90;;
30635;SDS011;17400;52.392;9.750;2023-08-08T09:33:11;4.35;;;2.40;;
30635;SDS011;17400;52.392;9.750;2023-08-08T09:35:39;15.60;;;2.33;;
30635;SDS011;17400;52.392;9.750;2023-08-08T09:38:07;4.70;;;2.17;;
30635;SDS011;17400;52.392;9.750;2023-08-08T09:40:35;5.25;;;2.42;;
30635;SDS011;17400;52.392;9.750;2023-08-08T09:43:03;5.43;;;2.35;;
30635;SDS011;17400;52.392;9.750;2023-08-08T09:45:39;6.18;;;2.58;;
30635;SDS011;17400;52.392;9.750;2023-08-08T09:48:09;3.70;;;1.95;;
30635;SDS011;17400;52.392;9.750;2023-08-08T09:50:37;4.43;;;2.65;;
30635;SDS011;17400;52.392;9.750;2023-08-08T09:53:07;3.15;;;1.90;;
30635;SDS011;17400;52.392;9.750;2023-08-08T09:55:36;3.95;;;2.25;;
30635;SDS011;17400;52.392;9.750;2023-08-08T09:58:06;2.63;;;1.60;;
30635;SDS011;17400;52.392;9.750;2023-08-08T10:00:35;3.67;;;2.15;;
30635;SDS011;17400;52.392;9.750;2023-08-08T10:03:05;2.70;;;1.90;;
30635;SDS011;17400;52.392;9.750;2023-08-08T10:05:37;5.57;;;2.00;;
30635;SDS011;17400;52.392;9.750;2023-08-08T10:08:05;4.32;;;2.63;;
30635;SDS011;17400;52.392;9.750;2023-08-08T10:10:33;6.90;;;2.67;;
30635;SDS011;17400;52.392;9.750;2023-08-08T10:13:03;3.00;;;2.22;;
30635;SDS011;17400;52.392;9.750;2023-08-08T10:15:32;4.30;;;2.00;;
30635;SDS011;17400;52.392;9.750;2023-08-08T10:18:06;3.35;;;1.67;;
30635;SDS011;17400;52.392;9.750;2023-08-08T10:20:35;5.32;;;2.75;;
30635;SDS011;17400;52.392;9.750;2023-08-08T10:23:03;6.63;;;1.88;;
30635;SDS011;17400;52.392;9.750;2023-08-08T10:25:33;2.63;;;1.60;;
30635;SDS011;17400;52.392;9.750;2023-08-08T10:28:02;6.78;;;2.30;;
30635;SDS011;17400;52.392;9.750;2023-08-08T10:30:52;4.07;;;1.77;;
30635;SDS011;17400;52.392;9.750;2023-08-08T10:33:23;3.25;;;2.15;;
30635;SDS011;17400;52.392;9.750;2023-08-08T10:35:59;4.05;;;2.38;;
30635;SDS011;17400;52.392;9.750;2023-08-08T10:38:38;5.47;;;2.10;;
30635;SDS011;17400;52.392;9.750;2023-08-08T10:41:09;6.50;;;2.42;;
30635;SDS011;17400;52.392;9.750;2023-08-08T10:43:38;4.10;;;2.05;;
30635;SDS011;17400;52.392;9.750;2023-08-08T10:46:07;4.72;;;2.00;;
30635;SDS011;17400;52.392;9.750;2023-08-08T10:48:50;4.30;;;1.40;;
30635;SDS011;17400;52.392;9.750;2023-08-08T10:51:18;3.38;;;2.42;;
30635;SDS011;17400;52.392;9.750;2023-08-08T10:53:50;3.90;;;2.90;;
30635;SDS011;17400;52.392;9.750;2023-08-08T10:56:18;3.88;;;2.42;;
30635;SDS011;17400;52.392;9.750;2023-08-08T10:58:48;3.92;;;1.73;;
30635;SDS011;17400;52.392;9.750;2023-08-08T11:01:16;2.58;;;1.40;;
30635;SDS011;17400;52.392;9.750;2023-08-08T11:03:45;7.85;;;2.60;;
30635;SDS011;17400;52.392;9.750;2023-08-08T11:06:17;2.15;;;1.88;;
30635;SDS011;17400;52.392;9.750;2023-08-08T11:08:46;4.32;;;1.40;;
30635;SDS011;17400;52.392;9.750;2023-08-08T11:11:13;2.80;;;1.50;;
30635;SDS011;17400;52.392;9.750;2023-08-08T11:13:41;2.20;;;1.40;;
30635;SDS011;17400;52.392;9.750;2023-08-08T11:16:09;1.98;;;1.52;;
30635;SDS011;17400;52.392;9.750;2023-08-08T11:18:37;3.42;;;1.20;;
30635;SDS011;17400;52.392;9.750;2023-08-08T11:21:09;2.38;;;1.08;;
30635;SDS011;17400;52.392;9.750;2023-08-08T11:23:46;2.55;;;1.10;;
30635;SDS011;17400;52.392;9.750;2023-08-08T11:26:16;3.63;;;1.23;;
30635;SDS011;17400;52.392;9.750;2023-08-08T11:28:49;2.05;;;1.05;;
30635;SDS011;17400;52.392;9.750;2023-08-08T11:31:17;2.35;;;1.17;;
30635;SDS011;17400;52.392;9.750;2023-08-08T11:33:47;4.28;;;1.27;;
30635;SDS011;17400;52.392;9.750;2023-08-08T11:36:15;3.47;;;1.40;;
30635;SDS011;17400;52.392;9.750;2023-08-08T11:38:43;3.47;;;1.60;;
30635;SDS011;17400;52.392;9.750;2023-08-08T11:41:13;3.42;;;1.15;;
30635;SDS011;17400;52.392;9.750;2023-08-08T11:43:43;1.50;;;0.82;;
30635;SDS011;17400;52.392;9.750;2023-08-08T11:46:13;2.15;;;1.27;;
30635;SDS011;17400;52.392;9.750;2023-08-08T11:48:42;2.65;;;1.00;;
30635;SDS011;17400;52.392;9.750;2023-08-08T11:51:09;3.20;;;1.33;;
30635;SDS011;17400;52.392;9.750;2023-08-08T11:53:47;2.42;;;1.63;;
30635;SDS011;17400;52.392;9.750;2023-08-08T11:56:20;2.17;;;1.40;;
30635;SDS011;17400;52.392;9.750;2023-08-08T11:58:49;5.35;;;1.98;;
30635;SDS011;17400;52.392;9.750;2023-08-08T12:01:19;2.97;;;1.63;;
30635;SDS011;17400;52.392;9.750;2023-08-08T12:03:47;3.88;;;1.90;;
30635;SDS011;17400;52.392;9.750;2023-08-08T12:06:15;2.13;;;1.65;;
30635;SDS011;17400;52.392;9.750;2023-08-08T12:08:44;2.80;;;1.60;;
30635;SDS011;17400;52.392;9.750;2023-08-08T12:11:14;2.35;;;1.27;;
30635;SDS011;17400;52.392;9.750;2023-08-08T12:13:45;5.15;;;1.50;;
30635;SDS011;17400;52.392;9.750;2023-08-08T12:16:13;2.72;;;1.75;;
30635;SDS011;17400;52.392;9.750;2023-08-08T12:18:43;3.65;;;1.90;;
30635;SDS011;17400;52.392;9.750;2023-08-08T12:21:12;2.80;;;1.88;;
30635;SDS011;17400;52.392;9.750;2023-08-08T12:23:40;2.20;;;1.30;;
30635;SDS011;17400;52.392;9.750;2023-08-08T12:26:08;3.60;;;1.38;;
30635;SDS011;17400;52.392;9.750;2023-08-08T12:28:36;1.85;;;1.38;;
30635;SDS011;17400;52.392;9.750;2023-08-08T12:31:05;2.08;;;1.40;;
30635;SDS011;17400;52.392;9.750;2023-08-08T12:33:33;2.13;;;1.50;;
30635;SDS011;17400;52.392;9.750;2023-08-08T12:36:01;2.90;;;1.33;;
30635;SDS011;17400;52.392;9.750;2023-08-08T12:38:29;2.05;;;1.17;;
30635;SDS011;17400;52.392;9.750;2023-08-08T12:40:57;1.70;;;0.90;;
30635;SDS011;17400;52.392;9.750;2023-08-08T12:43:28;1.92;;;0.90;;
30635;SDS011;17400;52.392;9.750;2023-08-08T12:45:56;4.60;;;1.20;;
30635;SDS011;17400;52.392;9.750;2023-08-08T12:48:27;2.42;;;1.20;;
30635;SDS011;17400;52.392;9.750;2023-08-08T12:50:55;1.48;;;0.98;;
30635;SDS011;17400;52.392;9.750;2023-08-08T12:53:23;4.35;;;1.85;;
30635;SDS011;17400;52.392;9.750;2023-08-08T12:55:51;2.40;;;1.45;;
30635;SDS011;17400;52.392;9.750;2023-08-08T12:58:20;1.85;;;1.10;;
30635;SDS011;17400;52.392;9.750;2023-08-08T13:00:49;3.17;;;1.30;;
30635;SDS011;17400;52.392;9.750;2023-08-08T13:03:17;2.13;;;1.20;;
30635;SDS011;17400;52.392;9.750;2023-08-08T13:05:47;2.60;;;1.13;;
30635;SDS011;17400;52.392;9.750;2023-08-08T13:08:15;2.63;;;1.30;;
30635;SDS011;17400;52.392;9.750;2023-08-08T13:10:43;5.25;;;1.23;;
30635;SDS011;17400;52.392;9.750;2023-08-08T13:13:13;3.00;;;1.23;;
30635;SDS011;17400;52.392;9.750;2023-08-08T13:15:41;1.75;;;0.95;;
30635;SDS011;17400;52.392;9.750;2023-08-08T13:18:09;1.73;;;0.90;;
30635;SDS011;17400;52.392;9.750;2023-08-08T13:20:37;1.45;;;0.63;;
30635;SDS011;17400;52.392;9.750;2023-08-08T13:23:07;2.78;;;1.10;;
30635;SDS011;17400;52.392;9.750;2023-08-08T13:25:35;1.23;;;0.77;;
30635;SDS011;17400;52.392;9.750;2023-08-08T13:28:03;2.65;;;1.60;;
30635;SDS011;17400;52.392;9.750;2023-08-08T13:30:31;4.20;;;1.15;;
30635;SDS011;17400;52.392;9.750;2023-08-08T13:33:00;2.10;;;0.80;;
30635;SDS011;17400;52.392;9.750;2023-08-08T13:35:29;1.95;;;1.27;;
30635;SDS011;17400;52.392;9.750;2023-08-08T13:37:57;2.78;;;1.02;;
30635;SDS011;17400;52.392;9.750;2023-08-08T13:40:27;2.55;;;1.33;;
30635;SDS011;17400;52.392;9.750;2023-08-08T13:42:55;1.95;;;1.10;;
30635;SDS011;17400;52.392;9.750;2023-08-08T13:45:23;1.90;;;1.02;;
30635;SDS011;17400;52.392;9.750;2023-08-08T13:47:51;3.38;;;1.65;;
30635;SDS011;17400;52.392;9.750;2023-08-08T13:50:20;3.03;;;1.08;;
30635;SDS011;17400;52.392;9.750;2023-08-08T13:52:48;3.50;;;0.90;;
30635;SDS011;17400;52.392;9.750;2023-08-08T13:55:19;2.47;;;1.23;;
30635;SDS011;17400;52.392;9.750;2023-08-08T13:57:48;1.88;;;0.95;;
30635;SDS011;17400;52.392;9.750;2023-08-08T14:00:16;1.80;;;0.88;;
30635;SDS011;17400;52.392;9.750;2023-08-08T14:02:44;2.75;;;1.13;;
30635;SDS011;17400;52.392;9.750;2023-08-08T14:05:12;2.67;;;1.67;;
30635;SDS011;17400;52.392;9.750;2023-08-08T14:07:41;1.02;;;0.90;;
30635;SDS011;17400;52.392;9.750;2023-08-08T14:10:09;1.80;;;1.00;;
30635;SDS011;17400;52.392;9.750;2023-08-08T14:12:38;2.38;;;1.08;;
30635;SDS011;17400;52.392;9.750;2023-08-08T14:15:08;2.17;;;1.20;;
30635;SDS011;17400;52.392;9.750;2023-08-08T14:17:36;4.95;;;1.30;;
30635;SDS011;17400;52.392;9.750;2023-08-08T14:20:06;2.60;;;1.58;;
30635;SDS011;17400;52.392;9.750;2023-08-08T14:22:35;4.53;;;1.80;;
30635;SDS011;17400;52.392;9.750;2023-08-08T14:25:03;2.67;;;1.17;;
30635;SDS011;17400;52.392;9.750;2023-08-08T14:27:32;2.35;;;1.10;;
30635;SDS011;17400;52.392;9.750;2023-08-08T14:30:01;2.55;;;1.58;;
30635;SDS011;17400;52.392;9.750;2023-08-08T14:32:31;2.72;;;1.30;;
30635;SDS011;17400;52.392;9.750;2023-08-08T14:35:00;2.13;;;1.30;;
30635;SDS011;17400;52.392;9.750;2023-08-08T14:37:29;2.40;;;1.25;;
30635;SDS011;17400;52.392;9.750;2023-08-08T14:39:57;6.05;;;1.70;;
30635;SDS011;17400;52.392;9.750;2023-08-08T14:42:25;1.80;;;1.08;;
30635;SDS011;17400;52.392;9.750;2023-08-08T14:44:54;1.92;;;1.23;;
30635;SDS011;17400;52.392;9.750;2023-08-08T14:47:22;1.95;;;1.10;;
30635;SDS011;17400;52.392;9.750;2023-08-08T14:49:51;2.42;;;1.00;;
30635;SDS011;17400;52.392;9.750;2023-08-08T14:52:19;0.88;;;0.50;;
30635;SDS011;17400;52.392;9.750;2023-08-08T14:54:49;1.40;;;0.73;;
30635;SDS011;17400;52.392;9.750;2023-08-08T14:57:17;1.13;;;0.70;;